セブ の空港の天気 - METARとTAF

マクタン・セブ国際空港 ( RPVM / CEB ) - フィリピン セブ / ラプ=ラプ
飛行場実況気象(Metar)
観測時間01/21 22:00 PHT (01/21 14:00 UTC)
風向・風速西南西 2m/s
視程10km以上
天気現象
少しの雲 雲底高度 610m
全天の8割程度の雲 雲底高度 3050m
気温25℃
湿度94%
気圧1010hPa
METARRPVM 211400Z 25004KT 230V290 9999 FEW020 BKN100 25/24 Q1010 RMK A2983
過去の天気等 Google飛行場航空写真 Wunderground天気予報

過去48時間のMETAR

飛行場予報(TAF)
発表時間: 1/21 19:00 PHT (1/21 11:00 UTC)
予報対象時間: 21日20時 PHT ~ 23日2時 PHT
風向・風速北 4m/s
視程10km以上
少しの雲 雲底高度 610m
全天の8割程度の雲 雲底高度 3050m
21日20時 PHT ~ 22日2時 PHT に一時的に
風向・風速北北西 5m/s
視程9000m
天気現象弱いしゅう雨
22日2時 PHT ~ 22日8時 PHT に一時的に
風向・風速北北西 4m/s
視程9000m
天気現象弱いしゅう雨
全天の4割程度の雲 雲底高度 610m
全天の8割程度の雲 雲底高度 3050m
TAF RPVM 211100Z 2112/2218 01008KT 9999 FEW020 BKN100
TEMPO 2112/2118 33010KT 9000 -SHRA
TEMPO 2118/2124 33008KT 9000 -SHRA SCT020 BKN100